KACV - Arcata/Eureka, California, USA
Updated: Fri, 23-Feb-2018 4:53pm PST
Clear
Clear
 Wind from N
Wind: N 9 mph , 15 km/h
Temperature: 48°F , 9°C
Wind Chill: 44°F , 7°C
Dew Point: 25°F , -4°C
Humidity: 40%
Barometer: 30.46 inHg , 1031.5 hPa
Clouds: Clear
Visibility: 10 miles , 16 km
2018/02/24 00:53 KACV 240053Z AUTO 35008KT 10SM CLR 09/M04 A3046 RMK AO2 SLP322 T00941039

Metar display script from Saratoga-Weather.org